Time;durP1;ratioP1;P1;durP2;ratioP2;P2;SDS_P1;SDS_P2;PMS_P1;PMS_P2;Temp;Humidity;BMP_temperature;BMP_pressure;BME280_temperature;BME280_humidity;BME280_pressure;Samples;Min_cycle;Max_cycle;Signal;HPM_P1;HPM_P2
2021/09/07 00:02:55;;;;;;;5.54;4.91;;;;;;;14.10;85.57;100000.06;2043415;76;20784;-77
2021/09/07 00:05:59;;;;;;;6.24;4.89;;;;;;;14.07;85.54;99993.13;2042661;79;20209;-77
2021/09/07 00:09:01;;;;;;;5.36;4.82;;;;;;;14.06;85.85;99990.53;2043556;79;20503;-78
2021/09/07 00:12:05;;;;;;;7.19;4.57;;;;;;;14.06;85.99;99986.19;2043148;79;20649;-78
2021/09/07 00:15:10;;;;;;;10.29;4.45;;;;;;;14.01;86.09;99987.97;2043486;79;20588;-78
2021/09/07 00:18:13;;;;;;;4.78;4.05;;;;;;;13.97;86.15;99988.84;2043609;79;20276;-78
2021/09/07 00:21:16;;;;;;;5.01;4.29;;;;;;;13.95;86.17;99980.19;2043570;79;20176;-77
2021/09/07 00:24:19;;;;;;;5.36;4.01;;;;;;;13.93;86.12;99984.56;2043030;79;20224;-77
2021/09/07 00:27:22;;;;;;;5.35;3.63;;;;;;;13.89;86.33;99977.63;2043334;79;20247;-78
2021/09/07 00:30:24;;;;;;;5.80;4.15;;;;;;;13.85;86.20;99981.16;2042575;76;23998;-77
2021/09/07 00:33:27;;;;;;;7.69;4.43;;;;;;;13.81;86.22;99974.19;2044317;79;20888;-78
2021/09/07 00:36:30;;;;;;;4.97;4.00;;;;;;;13.81;86.12;99984.66;2043171;79;20161;-77
2021/09/07 00:39:32;;;;;;;6.22;3.91;;;;;;;13.77;85.90;99980.34;2043985;79;20169;-78
2021/09/07 00:42:36;;;;;;;4.72;4.06;;;;;;;13.75;86.03;99974.25;2043968;79;20213;-77
2021/09/07 00:45:39;;;;;;;4.64;4.11;;;;;;;13.73;85.90;99976.03;2042826;76;21447;-77
2021/09/07 00:48:41;;;;;;;6.14;4.78;;;;;;;13.68;86.02;99973.47;2043563;79;20205;-79
2021/09/07 00:51:46;;;;;;;5.94;3.78;;;;;;;13.67;85.98;99974.34;2043414;79;20181;-77
2021/09/07 00:55:08;;;;;;;3.95;3.39;;;;;;;13.65;86.00;99981.31;2043542;79;20180;-77
2021/09/07 00:58:13;;;;;;;4.90;3.75;;;;;;;13.63;85.96;99971.72;2043294;79;20201;-78
2021/09/07 01:01:16;;;;;;;4.15;3.76;;;;;;;13.61;85.99;99966.53;2042674;76;21232;-78
2021/09/07 01:04:19;;;;;;;4.54;3.56;;;;;;;13.56;86.16;99969.19;2042964;79;20164;-77
2021/09/07 01:07:21;;;;;;;5.25;3.69;;;;;;;13.53;86.13;99970.94;2042987;79;20214;-77
2021/09/07 01:10:24;;;;;;;4.69;3.70;;;;;;;13.51;86.08;99967.50;2044771;79;20189;-77
2021/09/07 01:13:27;;;;;;;4.31;3.47;;;;;;;13.48;86.09;99957.09;2043552;79;20188;-78
2021/09/07 01:16:29;;;;;;;4.82;4.01;;;;;;;13.44;86.03;99961.44;2042220;79;20197;-78
2021/09/07 01:19:32;;;;;;;4.56;3.21;;;;;;;13.43;85.72;99953.63;2043460;76;21121;-77
2021/09/07 01:22:34;;;;;;;4.31;3.91;;;;;;;13.41;85.63;99945.81;2042778;79;20168;-77
2021/09/07 01:25:37;;;;;;;3.75;3.36;;;;;;;13.39;85.54;99944.09;2042708;79;20169;-78
2021/09/07 01:28:41;;;;;;;3.83;3.49;;;;;;;13.34;85.56;99944.13;2043806;79;20194;-78
2021/09/07 01:31:44;;;;;;;5.94;4.14;;;;;;;13.29;85.59;99938.94;2042019;76;21472;-78
2021/09/07 01:34:49;;;;;;;4.46;4.10;;;;;;;13.26;85.66;99946.78;2043097;79;20248;-78
2021/09/07 01:37:52;;;;;;;4.74;3.44;;;;;;;13.22;85.94;99946.81;2043514;79;20200;-77
2021/09/07 01:40:55;;;;;;;3.84;3.41;;;;;;;13.16;86.30;99942.47;2042894;79;20172;-77
2021/09/07 01:43:58;;;;;;;9.69;3.99;;;;;;;13.10;86.53;99944.22;2041950;79;20204;-78
2021/09/07 01:47:01;;;;;;;4.20;3.59;;;;;;;13.03;86.71;99946.00;2042523;79;22163;-78
2021/09/07 01:50:04;;;;;;;4.30;3.86;;;;;;;13.02;86.57;99944.28;2043453;79;20243;-78
2021/09/07 01:53:07;;;;;;;5.51;3.22;;;;;;;13.00;86.32;99944.28;2042450;79;20230;-77
2021/09/07 01:56:09;;;;;;;6.14;3.53;;;;;;;13.00;86.19;99951.25;2042812;79;20220;-77
2021/09/07 01:59:12;;;;;;;3.54;3.22;;;;;;;12.98;86.33;99946.06;2043150;79;21091;-77
2021/09/07 02:02:15;;;;;;;4.54;3.44;;;;;;;12.94;86.45;99946.09;2039018;76;22649;-78
2021/09/07 02:05:18;;;;;;;3.95;3.61;;;;;;;12.90;86.50;99953.03;2038793;79;20169;-78
2021/09/07 02:08:21;;;;;;;4.49;3.72;;;;;;;12.87;86.67;99952.19;2039911;79;20651;-77
2021/09/07 02:11:23;;;;;;;5.68;3.54;;;;;;;12.86;86.83;99948.72;2039433;79;20987;-78
2021/09/07 02:14:26;;;;;;;4.15;3.38;;;;;;;12.82;86.86;99953.94;2039728;79;20190;-78
2021/09/07 02:17:29;;;;;;;4.44;3.08;;;;;;;12.81;86.79;99947.00;2044057;76;27189;-78
2021/09/07 02:20:31;;;;;;;5.26;3.55;;;;;;;12.78;86.81;99958.31;2045485;79;20223;-78
2021/09/07 02:23:34;;;;;;;4.21;3.38;;;;;;;12.78;86.66;99945.28;2045060;79;20326;-78
2021/09/07 02:26:36;;;;;;;4.40;3.53;;;;;;;12.76;86.70;99948.78;2045926;79;20172;-77
2021/09/07 02:29:40;;;;;;;3.60;3.30;;;;;;;12.74;86.60;99940.94;2045468;79;20244;-79
2021/09/07 02:32:43;;;;;;;5.40;3.60;;;;;;;12.71;86.64;99944.41;2043852;76;23839;-78
2021/09/07 02:35:45;;;;;;;5.72;3.85;;;;;;;12.66;86.68;99943.59;2045914;79;20311;-77
2021/09/07 02:38:48;;;;;;;4.45;4.09;;;;;;;12.62;86.68;99941.00;2044842;79;20240;-78
2021/09/07 02:41:51;;;;;;;5.13;3.49;;;;;;;12.62;86.81;99943.59;2044752;79;20213;-77
2021/09/07 02:44:54;;;;;;;4.26;3.78;;;;;;;12.59;86.82;99934.06;2044959;79;20172;-78
2021/09/07 02:47:56;;;;;;;4.78;3.70;;;;;;;12.60;86.71;99934.94;2044392;76;21221;-78
2021/09/07 02:50:59;;;;;;;5.59;3.59;;;;;;;12.57;86.82;99937.56;2043806;79;21181;-77
2021/09/07 02:54:01;;;;;;;5.86;3.58;;;;;;;12.55;86.98;99941.88;2044303;79;20740;-78
2021/09/07 02:57:04;;;;;;;4.29;3.42;;;;;;;12.51;86.88;99932.34;2048984;79;20171;-78
2021/09/07 03:00:07;;;;;;;4.32;3.78;;;;;;;12.48;86.67;99932.38;2043973;79;20173;-77
2021/09/07 03:03:10;;;;;;;4.49;3.44;;;;;;;12.45;86.75;99935.84;2044377;76;22329;-78
2021/09/07 03:06:13;;;;;;;5.01;3.54;;;;;;;12.43;86.87;99934.13;2044730;79;20311;-78
2021/09/07 03:09:15;;;;;;;4.46;3.55;;;;;;;12.42;86.74;99937.59;2044087;79;20961;-77
2021/09/07 03:12:18;;;;;;;5.28;3.63;;;;;;;12.40;86.68;99937.63;2043314;79;20268;-78
2021/09/07 03:15:22;;;;;;;4.10;3.53;;;;;;;12.40;86.58;99933.28;2043054;76;24708;-77
2021/09/07 03:18:25;;;;;;;5.99;4.20;;;;;;;12.39;86.36;99935.88;2043719;79;20194;-77
2021/09/07 03:21:27;;;;;;;5.24;4.07;;;;;;;12.38;86.45;99936.72;2043456;79;20160;-78
2021/09/07 03:24:30;;;;;;;4.79;3.92;;;;;;;12.36;86.32;99928.91;2044294;79;20186;-77
2021/09/07 03:27:33;;;;;;;6.69;4.18;;;;;;;12.35;86.25;99923.72;2043656;79;20517;-78
2021/09/07 03:30:35;;;;;;;4.36;3.96;;;;;;;12.32;86.37;99918.53;2042547;76;24590;-77
2021/09/07 03:33:38;;;;;;;4.72;4.22;;;;;;;12.30;86.61;99921.13;2043757;79;20194;-78
2021/09/07 03:36:41;;;;;;;7.05;4.71;;;;;;;12.27;86.79;99918.53;2043862;79;20190;-78
2021/09/07 03:39:44;;;;;;;6.57;3.75;;;;;;;12.26;86.79;99918.56;2043729;79;20196;-79
2021/09/07 03:42:46;;;;;;;4.85;3.72;;;;;;;12.25;86.48;99920.28;2043074;79;20164;-78
2021/09/07 03:45:49;;;;;;;6.11;3.83;;;;;;;12.23;86.17;99916.81;2043109;76;22678;-78
2021/09/07 03:48:52;;;;;;;5.06;3.75;;;;;;;12.21;86.30;99913.38;2043153;79;20164;-78
2021/09/07 03:51:55;;;;;;;4.65;3.96;;;;;;;12.18;86.35;99915.09;2043037;79;20233;-77
2021/09/07 03:54:57;;;;;;;6.40;3.71;;;;;;;12.15;86.14;99902.94;2044339;79;20652;-77
2021/09/07 03:58:00;;;;;;;3.70;3.40;;;;;;;12.09;86.33;99914.25;2043088;79;20165;-77
2021/09/07 04:01:03;;;;;;;4.03;3.69;;;;;;;12.09;86.46;99921.19;2042810;76;21337;-78
2021/09/07 04:04:06;;;;;;;4.68;3.90;;;;;;;12.06;86.59;99914.25;2044494;79;20196;-77
2021/09/07 04:07:09;;;;;;;4.14;3.56;;;;;;;12.05;86.55;99906.47;2043366;79;20172;-78
2021/09/07 04:10:11;;;;;;;4.29;3.90;;;;;;;12.02;86.81;99903.84;2042779;79;20772;-79
2021/09/07 04:13:19;;;;;;;4.69;4.09;;;;;;;11.98;86.69;99909.94;2043500;79;20784;-78
2021/09/07 04:16:21;;;;;;;4.46;3.90;;;;;;;11.95;86.68;99913.41;2039915;76;26118;-78
2021/09/07 04:19:24;;;;;;;6.09;4.20;;;;;;;11.92;86.80;99918.63;2038448;79;20213;-78
2021/09/07 04:22:28;;;;;;;4.15;3.71;;;;;;;11.92;86.84;99921.22;2038442;79;20229;-78
2021/09/07 04:25:30;;;;;;;3.83;3.38;;;;;;;11.93;86.89;99924.69;2038443;79;20252;-78
2021/09/07 04:28:33;;;;;;;3.96;3.55;;;;;;;11.88;86.79;99924.69;2037778;79;20173;-77
2021/09/07 04:31:35;;;;;;;4.32;3.76;;;;;;;11.85;86.75;99924.72;2042455;76;20742;-77
2021/09/07 04:34:38;;;;;;;4.22;3.14;;;;;;;11.83;86.73;99923.81;2048892;79;20172;-78
2021/09/07 04:37:41;;;;;;;7.63;3.41;;;;;;;11.82;86.70;99914.28;2048577;79;20623;-78
2021/09/07 04:40:44;;;;;;;5.38;3.54;;;;;;;11.76;86.57;99917.72;2049425;79;20227;-78
2021/09/07 04:43:47;;;;;;;4.61;4.06;;;;;;;11.75;86.70;99907.34;2049197;79;20228;-78
2021/09/07 04:46:50;;;;;;;5.43;3.75;;;;;;;11.73;86.68;99909.06;2041886;78;21061;-78
2021/09/07 04:49:52;;;;;;;4.86;3.53;;;;;;;11.70;86.67;99912.53;2038194;79;20616;-78
2021/09/07 04:52:55;;;;;;;4.15;3.78;;;;;;;11.69;86.75;99908.22;2038133;79;20251;-78
2021/09/07 04:55:57;;;;;;;3.95;3.51;;;;;;;11.67;86.99;99909.06;2037795;79;20194;-78
2021/09/07 04:59:00;;;;;;;5.22;3.92;;;;;;;11.67;87.04;99909.94;2038297;79;20985;-78
2021/09/07 05:02:03;;;;;;;4.40;3.79;;;;;;;11.69;87.20;99910.81;2040579;77;23347;-77
2021/09/07 05:05:07;;;;;;;4.24;3.51;;;;;;;11.69;87.29;99916.00;2043271;79;20204;-79
2021/09/07 05:08:11;;;;;;;4.15;3.80;;;;;;;11.69;87.48;99921.22;2042905;79;20197;-77
2021/09/07 05:11:14;;;;;;;6.00;4.18;;;;;;;11.69;87.29;99920.34;2042932;79;20767;-78
2021/09/07 05:14:16;;;;;;;3.94;3.64;;;;;;;11.70;87.54;99925.56;2042842;79;20239;-78
2021/09/07 05:17:19;;;;;;;7.69;3.84;;;;;;;11.70;87.74;99922.94;2041721;76;21581;-77
2021/09/07 05:20:22;;;;;;;4.56;4.01;;;;;;;11.71;87.65;99922.09;2043454;79;20617;-78
2021/09/07 05:23:24;;;;;;;4.15;3.70;;;;;;;11.74;87.55;99926.41;2042988;79;20879;-78
2021/09/07 05:26:27;;;;;;;4.28;3.88;;;;;;;11.74;87.56;99927.28;2043034;79;20244;-77
2021/09/07 05:29:30;;;;;;;4.15;3.75;;;;;;;11.75;87.40;99925.53;2043119;79;20354;-77
2021/09/07 05:32:33;;;;;;;3.91;3.61;;;;;;;11.76;87.18;99924.66;2042060;76;21179;-78
2021/09/07 05:35:36;;;;;;;4.82;4.36;;;;;;;11.79;87.30;99935.09;2042544;79;20901;-78
2021/09/07 05:38:38;;;;;;;3.86;3.55;;;;;;;11.82;87.51;99936.84;2043039;79;20345;-78
2021/09/07 05:41:41;;;;;;;3.91;3.54;;;;;;;11.85;87.71;99942.94;2042775;79;20236;-77
2021/09/07 05:44:44;;;;;;;4.09;3.69;;;;;;;11.89;87.66;99943.78;2043173;79;20212;-77
2021/09/07 05:47:46;;;;;;;4.65;3.84;;;;;;;11.93;87.50;99945.50;2042041;76;21380;-77
2021/09/07 05:50:49;;;;;;;4.59;3.50;;;;;;;11.98;87.31;99947.22;2043123;79;20329;-78
2021/09/07 05:53:52;;;;;;;3.88;3.61;;;;;;;12.03;87.25;99952.44;2043032;79;20210;-78
2021/09/07 05:56:57;;;;;;;4.44;3.97;;;;;;;11.98;87.08;99954.16;2043755;79;20220;-78
2021/09/07 06:00:00;;;;;;;5.21;3.65;;;;;;;11.96;87.38;99948.09;2042765;79;20161;-78
2021/09/07 06:03:08;;;;;;;5.00;4.16;;;;;;;12.00;87.68;99955.03;2037251;76;21685;-78
2021/09/07 06:06:11;;;;;;;4.11;3.77;;;;;;;12.03;87.81;99944.63;2038108;79;20227;-78
2021/09/07 06:09:14;;;;;;;5.04;4.32;;;;;;;12.04;88.05;99955.06;2038578;79;21063;-78
2021/09/07 06:12:17;;;;;;;5.86;4.11;;;;;;;12.10;88.24;99944.63;2037934;79;20536;-78
2021/09/07 06:15:19;;;;;;;3.65;3.35;;;;;;;12.20;88.32;99948.06;2037361;76;24514;-79
2021/09/07 06:18:22;;;;;;;4.50;3.81;;;;;;;12.29;88.58;99955.00;2043134;79;20180;-78
2021/09/07 06:21:25;;;;;;;6.13;3.89;;;;;;;12.44;88.61;99960.16;2043667;79;20200;-78
2021/09/07 06:24:33;;;;;;;4.87;4.39;;;;;;;12.58;88.31;99966.22;2042758;79;20831;-79
2021/09/07 06:27:35;;;;;;;4.21;3.91;;;;;;;12.71;87.97;99969.63;2043092;79;20213;-78
2021/09/07 06:30:38;;;;;;;4.61;3.83;;;;;;;12.86;87.74;99972.16;2041844;76;25921;-80
2021/09/07 06:33:41;;;;;;;4.76;4.24;;;;;;;13.03;87.29;99979.91;2042558;79;20290;-78
2021/09/07 06:36:44;;;;;;;6.26;4.59;;;;;;;13.13;86.94;99980.75;2043159;79;20216;-77
2021/09/07 06:39:46;;;;;;;5.32;4.36;;;;;;;13.20;86.83;99982.47;2043027;79;20662;-77
2021/09/07 06:42:49;;;;;;;5.60;4.29;;;;;;;13.26;86.55;99974.59;2042576;79;20236;-77
2021/09/07 06:45:52;;;;;;;6.95;4.22;;;;;;;13.33;86.39;99980.66;2042537;76;21808;-77
2021/09/07 06:48:55;;;;;;;5.74;4.49;;;;;;;13.45;86.19;99976.22;2048222;79;20233;-78
2021/09/07 06:51:58;;;;;;;5.89;4.78;;;;;;;13.60;85.94;99980.47;2047977;79;20237;-78
2021/09/07 06:55:00;;;;;;;5.24;4.65;;;;;;;13.79;85.66;99981.19;2049820;79;20697;-78
2021/09/07 06:58:03;;;;;;;5.15;4.65;;;;;;;13.95;85.12;99981.94;2049590;79;20156;-77
2021/09/07 07:01:05;;;;;;;5.29;4.79;;;;;;;14.08;84.80;99981.81;2046564;76;21368;-77
2021/09/07 07:04:09;;;;;;;5.70;5.03;;;;;;;14.19;84.42;99984.34;2043503;79;20520;-77
2021/09/07 07:07:12;;;;;;;6.38;4.68;;;;;;;14.33;84.35;99987.66;2044431;79;20168;-77
2021/09/07 07:10:15;;;;;;;11.88;4.68;;;;;;;14.63;83.98;99994.34;2043321;79;20291;-78
2021/09/07 07:13:17;;;;;;;5.79;4.94;;;;;;;14.99;83.34;99993.03;2044098;79;20258;-79
2021/09/07 07:16:20;;;;;;;9.93;5.06;;;;;;;15.40;82.38;99995.09;2047719;76;24345;-77
2021/09/07 07:19:23;;;;;;;5.70;5.15;;;;;;;15.82;81.05;99998.00;2049953;79;20682;-75
2021/09/07 07:22:25;;;;;;;5.43;4.95;;;;;;;16.23;80.05;100004.28;2048808;79;20203;-77
2021/09/07 07:25:28;;;;;;;6.55;5.16;;;;;;;16.56;78.99;100000.19;2049376;79;20670;-77
2021/09/07 07:28:31;;;;;;;9.15;5.49;;;;;;;16.92;77.98;99994.25;2048367;79;20205;-77
2021/09/07 07:31:34;;;;;;;8.11;5.47;;;;;;;17.34;76.85;99991.59;2043588;76;25114;-78
2021/09/07 07:34:36;;;;;;;9.25;5.72;;;;;;;17.69;76.26;99993.44;2046155;79;20204;-77
2021/09/07 07:37:39;;;;;;;14.89;6.93;;;;;;;17.96;75.22;99997.19;2041948;79;20303;-77
2021/09/07 07:40:44;;;;;;;10.51;7.03;;;;;;;18.28;74.15;100009.47;2047686;79;20223;-78
2021/09/07 07:43:47;;;;;;;8.88;6.11;;;;;;;18.53;72.74;100003.59;2044494;79;21225;-78
2021/09/07 07:46:50;;;;;;;17.16;7.30;;;;;;;18.85;72.24;100007.97;2042023;76;21811;-77
2021/09/07 07:49:53;;;;;;;12.01;6.93;;;;;;;19.15;71.45;100004.47;2043204;79;20635;-77
2021/09/07 07:52:58;;;;;;;12.63;7.53;;;;;;;19.44;70.63;100005.38;2043549;79;20314;-77
2021/09/07 07:56:01;;;;;;;8.96;6.97;;;;;;;19.70;69.55;100005.44;2046703;79;20210;-77
2021/09/07 07:59:04;;;;;;;10.16;6.39;;;;;;;19.90;68.08;100010.06;2043715;79;20160;-77
2021/09/07 08:02:06;;;;;;;13.35;7.28;;;;;;;20.18;67.79;100007.38;2042097;76;24956;-77
2021/09/07 08:05:25;;;;;;;14.40;7.29;;;;;;;20.44;66.71;100014.44;2041778;79;20809;-77
2021/09/07 08:08:28;;;;;;;13.11;7.43;;;;;;;20.73;65.79;100016.91;2042410;79;20160;-77
2021/09/07 08:11:31;;;;;;;12.51;7.84;;;;;;;21.01;65.33;100011.50;2043154;79;20294;-77
2021/09/07 08:14:33;;;;;;;16.90;8.63;;;;;;;21.30;64.47;100013.06;2043267;79;20160;-78
2021/09/07 08:17:36;;;;;;;16.88;10.00;;;;;;;21.58;63.89;100009.34;2039848;76;148792;-77
2021/09/07 08:20:39;;;;;;;12.00;7.80;;;;;;;21.86;62.80;100009.09;2043022;79;20169;-77
2021/09/07 08:23:42;;;;;;;14.20;7.76;;;;;;;22.08;61.83;100007.31;2042544;79;20191;-78
2021/09/07 08:26:44;;;;;;;18.55;8.04;;;;;;;22.22;61.05;100007.59;2041938;79;20576;-77
2021/09/07 08:29:47;;;;;;;20.70;7.89;;;;;;;22.46;60.46;100007.50;2041844;79;20222;-77
2021/09/07 08:32:51;;;;;;;16.96;8.60;;;;;;;22.69;59.68;100002.03;2040801;76;30649;-77
2021/09/07 08:35:54;;;;;;;12.71;7.21;;;;;;;22.90;59.28;100016.13;2040924;79;21035;-77
2021/09/07 08:38:59;;;;;;;8.77;6.34;;;;;;;23.10;58.73;100015.22;2041821;79;20180;-77
2021/09/07 08:42:02;;;;;;;11.13;6.71;;;;;;;23.25;58.00;100008.38;2042695;79;20237;-77
2021/09/07 08:45:07;;;;;;;11.14;6.90;;;;;;;23.37;57.82;100013.97;2043117;79;20291;-76
2021/09/07 08:48:12;;;;;;;9.24;6.49;;;;;;;23.59;57.25;100012.97;2042245;76;21747;-77
2021/09/07 08:51:16;;;;;;;10.34;7.04;;;;;;;23.65;56.30;100015.31;2044593;79;20164;-77
2021/09/07 08:54:19;;;;;;;6.80;5.91;;;;;;;23.84;56.05;100017.94;2042598;79;20334;-77
2021/09/07 08:57:22;;;;;;;8.23;5.94;;;;;;;23.99;55.48;100015.41;2043163;79;20206;-77
2021/09/07 09:00:27;;;;;;;9.57;5.75;;;;;;;24.20;54.52;100017.91;2043701;79;20243;-77
2021/09/07 09:03:30;;;;;;;8.02;6.29;;;;;;;24.35;54.16;100022.47;2043393;79;20212;-78
2021/09/07 09:06:32;;;;;;;11.50;6.82;;;;;;;24.60;53.85;100027.41;2043956;79;20320;-77
2021/09/07 09:09:39;;;;;;;5.51;5.01;;;;;;;24.77;53.10;100026.50;2044234;79;20634;-77
2021/09/07 09:12:42;;;;;;;6.93;5.10;;;;;;;24.86;52.04;100018.91;2043615;79;20233;-78
2021/09/07 09:16:05;;;;;;;7.97;5.18;;;;;;;25.02;51.77;100021.66;2042077;76;21068;-77
2021/09/07 09:19:08;;;;;;;5.94;5.30;;;;;;;25.26;51.59;100014.13;2043363;79;20927;-77
2021/09/07 09:22:11;;;;;;;5.61;4.97;;;;;;;25.44;50.53;100014.91;2046999;79;20263;-77
2021/09/07 09:25:19;;;;;;;7.00;5.03;;;;;;;25.60;50.66;100010.47;2043552;79;20997;-77
2021/09/07 09:28:22;;;;;;;8.09;4.89;;;;;;;25.75;49.43;100014.94;2044424;79;20172;-77
2021/09/07 09:31:24;;;;;;;7.80;5.19;;;;;;;25.84;48.97;100009.09;2044490;76;21050;-77
2021/09/07 09:34:28;;;;;;;6.44;4.93;;;;;;;25.90;48.58;100008.75;2049275;79;20241;-77
2021/09/07 09:37:30;;;;;;;6.51;4.91;;;;;;;26.04;48.07;100007.97;2049100;79;20228;-78
2021/09/07 09:40:34;;;;;;;6.40;4.74;;;;;;;26.11;47.86;100011.97;2047615;79;20594;-77
2021/09/07 09:43:41;;;;;;;5.46;4.90;;;;;;;26.15;46.98;100009.97;2049250;79;20199;-78
2021/09/07 09:46:44;;;;;;;4.70;4.30;;;;;;;26.20;46.60;100008.75;2044336;76;20662;-78
2021/09/07 09:49:46;;;;;;;5.05;4.60;;;;;;;26.32;46.98;99998.31;2042133;79;20161;-77
2021/09/07 09:52:50;;;;;;;9.01;4.36;;;;;;;26.44;46.93;100002.97;2043182;79;20248;-79
2021/09/07 09:55:54;;;;;;;6.30;4.71;;;;;;;26.57;47.06;99995.06;2043248;79;20152;-78
2021/09/07 09:58:59;;;;;;;5.31;4.75;;;;;;;26.64;46.27;99993.75;2042447;79;20188;-78
2021/09/07 10:02:02;;;;;;;5.14;4.65;;;;;;;26.78;45.93;99985.78;2045447;76;23462;-78
2021/09/07 10:05:06;;;;;;;9.04;5.07;;;;;;;26.85;45.94;99989.78;2048009;79;20172;-78
2021/09/07 10:08:14;;;;;;;6.70;4.82;;;;;;;26.94;45.30;99985.69;2047598;79;20191;-78
2021/09/07 10:11:22;;;;;;;6.20;4.49;;;;;;;27.06;45.64;99984.94;2047647;79;20741;-77
2021/09/07 10:14:30;;;;;;;5.26;4.70;;;;;;;27.09;45.15;99976.75;2046970;79;20234;-78
2021/09/07 10:18:07;;;;;;;6.89;4.47;;;;;;;27.19;44.68;99977.03;2043043;76;24556;-78
2021/09/07 10:24:51;;;;;;;5.10;4.56;;;;;;;27.49;44.43;99975.06;2041368;79;20319;-77
2021/09/07 10:28:03;;;;;;;7.44;3.97;;;;;;;27.49;43.01;99971.53;2041263;79;20261;-77
2021/09/07 10:31:10;;;;;;;3.85;3.55;;;;;;;27.69;43.22;99963.97;2043442;76;20343;-78
2021/09/07 10:34:15;;;;;;;4.63;3.80;;;;;;;27.84;42.92;99956.78;2045339;79;20200;-77
2021/09/07 10:37:17;;;;;;;3.97;3.54;;;;;;;27.80;40.86;99959.72;2046781;79;20225;-77
2021/09/07 10:40:44;;;;;;;4.65;3.80;;;;;;;27.71;41.40;99960.34;2046984;79;20189;-77
2021/09/07 10:43:52;;;;;;;5.45;4.11;;;;;;;27.65;41.71;99953.59;2046790;79;20172;-77
2021/09/07 10:46:55;;;;;;;4.47;3.40;;;;;;;27.74;41.40;99957.47;2042923;76;21289;-78
2021/09/07 10:49:58;;;;;;;5.72;3.76;;;;;;;27.78;40.54;99945.63;2041934;79;20192;-78
2021/09/07 10:53:23;;;;;;;3.84;3.54;;;;;;;27.87;41.01;99953.03;2042814;79;20698;-77
2021/09/07 10:56:26;;;;;;;4.47;3.53;;;;;;;27.83;40.15;99946.16;2042268;79;20189;-78
2021/09/07 10:59:50;;;;;;;4.28;3.69;;;;;;;27.90;39.65;99935.00;2042914;79;20190;-77
2021/09/07 11:02:57;;;;;;;5.81;4.03;;;;;;;27.95;39.92;99940.00;2040876;76;21389;-77
2021/09/07 11:06:00;;;;;;;4.99;3.33;;;;;;;27.98;39.65;99934.47;2045210;79;20324;-77
2021/09/07 11:09:49;;;;;;;9.04;3.88;;;;;;;28.00;39.85;99929.88;2041907;79;20872;-77
2021/09/07 11:12:58;;;;;;;5.29;3.55;;;;;;;28.10;40.27;99928.28;2040518;79;20196;-78
2021/09/07 11:16:02;;;;;;;4.18;3.75;;;;;;;28.08;39.35;99924.88;2041955;76;22250;-77
2021/09/07 11:19:05;;;;;;;7.51;3.60;;;;;;;28.04;38.92;99925.19;2047229;79;20642;-77
2021/09/07 11:22:27;;;;;;;6.04;3.99;;;;;;;28.08;39.69;99916.88;2047560;79;20244;-77
2021/09/07 11:25:30;;;;;;;4.04;3.69;;;;;;;28.07;39.42;99917.81;2046190;79;20176;-77
2021/09/07 11:28:34;;;;;;;3.41;3.16;;;;;;;28.17;40.00;99918.03;2047443;79;20167;-77
2021/09/07 11:31:37;;;;;;;5.50;3.84;;;;;;;28.20;39.60;99908.03;2043399;76;22115;-77
2021/09/07 11:34:40;;;;;;;6.82;3.08;;;;;;;28.33;39.41;99923.22;2041722;79;20244;-76
2021/09/07 11:37:42;;;;;;;5.79;3.70;;;;;;;28.43;39.32;99910.94;2041741;79;20216;-76
2021/09/07 11:40:50;;;;;;;3.41;3.21;;;;;;;28.38;38.11;99910.41;2042029;79;20185;-77
2021/09/07 11:43:57;;;;;;;4.79;3.25;;;;;;;28.27;38.85;99911.16;2041967;79;20650;-77
2021/09/07 11:47:05;;;;;;;3.67;3.25;;;;;;;28.21;39.03;99909.72;2044538;76;26382;-77
2021/09/07 11:50:08;;;;;;;4.75;3.25;;;;;;;28.23;38.78;99898.94;2047218;79;20204;-79
2021/09/07 11:53:12;;;;;;;5.00;3.33;;;;;;;28.19;37.91;99895.63;2046140;79;20164;-78
2021/09/07 11:56:19;;;;;;;4.29;3.49;;;;;;;28.26;37.99;99894.28;2048291;79;20267;-78
2021/09/07 11:59:22;;;;;;;6.60;3.46;;;;;;;28.25;37.61;99895.22;2047354;79;21044;-77
2021/09/07 12:02:27;;;;;;;6.10;3.31;;;;;;;28.26;36.14;99891.59;2042098;76;21355;-78
2021/09/07 12:05:50;;;;;;;4.64;3.47;;;;;;;28.33;36.40;99889.34;2042296;79;20168;-78
2021/09/07 12:08:53;;;;;;;4.06;3.25;;;;;;;28.40;36.06;99885.28;2043565;79;20333;-78
2021/09/07 12:12:15;;;;;;;5.07;3.10;;;;;;;28.47;36.29;99888.38;2042438;79;20187;-78
2021/09/07 12:15:18;;;;;;;5.18;3.21;;;;;;;28.49;36.93;99886.44;2042515;79;20191;-78
2021/09/07 12:18:34;;;;;;;3.75;2.99;;;;;;;28.49;36.48;99881.97;2046369;77;32663;-77
2021/09/07 12:21:37;;;;;;;9.52;3.06;;;;;;;28.37;35.98;99876.63;2047318;79;20180;-77
2021/09/07 12:24:59;;;;;;;4.30;3.00;;;;;;;28.33;36.16;99869.78;2047201;79;20605;-78
2021/09/07 12:28:16;;;;;;;4.43;3.33;;;;;;;28.49;36.77;99867.75;2047073;79;20263;-78
2021/09/07 12:31:22;;;;;;;4.29;3.24;;;;;;;28.60;35.87;99867.84;2044144;76;24272;-78
2021/09/07 12:34:24;;;;;;;4.66;3.09;;;;;;;28.56;35.91;99871.72;2041513;79;20821;-77
2021/09/07 12:37:27;;;;;;;6.80;3.45;;;;;;;28.50;35.96;99862.28;2041808;79;20720;-77
2021/09/07 12:40:30;;;;;;;4.03;3.20;;;;;;;28.41;35.19;99862.97;2041660;79;20714;-77
2021/09/07 12:43:52;;;;;;;3.49;2.96;;;;;;;28.45;36.16;99856.44;2041568;79;21048;-77
2021/09/07 12:46:55;;;;;;;4.61;3.46;;;;;;;28.59;36.99;99853.63;2044252;76;23210;-78
2021/09/07 12:49:58;;;;;;;3.54;3.05;;;;;;;28.62;36.23;99847.22;2046672;79;20175;-78
2021/09/07 12:53:01;;;;;;;3.45;3.14;;;;;;;28.65;35.52;99852.34;2050347;78;20365;-77
2021/09/07 12:56:07;;;;;;;3.46;3.00;;;;;;;28.75;36.65;99842.69;2046218;79;20280;-78
2021/09/07 12:59:10;;;;;;;5.36;3.36;;;;;;;28.85;35.77;99843.72;2047424;79;20230;-77
2021/09/07 13:02:13;;;;;;;3.17;2.96;;;;;;;28.83;34.95;99836.78;2042077;79;20177;-77
2021/09/07 13:05:16;;;;;;;5.50;3.22;;;;;;;28.88;34.83;99843.53;2041527;79;20364;-77
2021/09/07 13:08:19;;;;;;;3.28;3.08;;;;;;;28.80;35.40;99831.66;2041280;79;20268;-77
2021/09/07 13:11:22;;;;;;;8.11;3.04;;;;;;;28.84;35.66;99834.00;2040997;79;20172;-77
2021/09/07 13:14:25;;;;;;;4.90;2.97;;;;;;;28.79;34.21;99828.13;2041810;79;20245;-78
2021/09/07 13:17:27;;;;;;;4.68;2.85;;;;;;;28.64;33.51;99823.03;2045160;76;30630;-77
2021/09/07 13:20:30;;;;;;;5.97;3.01;;;;;;;28.38;34.00;99823.09;2046728;79;20183;-77
2021/09/07 13:23:33;;;;;;;3.49;3.29;;;;;;;28.28;36.05;99828.22;2047189;79;20231;-78
2021/09/07 13:26:36;;;;;;;3.36;3.08;;;;;;;28.10;35.59;99818.81;2048189;79;20212;-78
2021/09/07 13:29:39;;;;;;;2.71;2.51;;;;;;;28.15;35.88;99814.00;2047670;79;20656;-77
2021/09/07 13:32:41;;;;;;;3.29;2.86;;;;;;;28.28;36.17;99803.34;2041295;76;21055;-77
2021/09/07 13:35:44;;;;;;;3.49;2.91;;;;;;;28.38;36.07;99795.53;2041195;79;20160;-77
2021/09/07 13:38:47;;;;;;;3.29;2.89;;;;;;;28.44;36.65;99801.28;2041706;79;20188;-77
2021/09/07 13:41:51;;;;;;;5.44;2.56;;;;;;;28.48;35.91;99804.59;2040860;79;21141;-78
2021/09/07 13:44:54;;;;;;;3.10;2.81;;;;;;;28.50;35.94;99797.31;2044648;79;20245;-76
2021/09/07 13:47:56;;;;;;;2.91;2.71;;;;;;;28.52;36.14;99803.41;2045570;76;24013;-77
2021/09/07 13:50:59;;;;;;;4.91;3.31;;;;;;;28.52;35.86;99790.88;2046795;79;20197;-76
2021/09/07 13:54:05;;;;;;;3.74;2.95;;;;;;;28.53;36.52;99789.06;2046907;79;20736;-77
2021/09/07 13:57:07;;;;;;;3.40;2.88;;;;;;;28.54;36.85;99788.97;2046441;79;20250;-77
2021/09/07 14:00:11;;;;;;;3.19;2.89;;;;;;;28.63;36.19;99784.78;2045130;79;21030;-77
2021/09/07 14:03:14;;;;;;;3.21;2.99;;;;;;;28.63;35.71;99784.78;2041817;79;21652;-77
2021/09/07 14:06:17;;;;;;;2.95;2.74;;;;;;;28.66;36.18;99778.34;2043054;79;20640;-77
2021/09/07 14:09:20;;;;;;;3.00;2.74;;;;;;;28.57;35.64;99772.72;2041877;79;20192;-76
2021/09/07 14:12:22;;;;;;;4.56;2.70;;;;;;;28.59;35.75;99783.31;2042745;79;20164;-78
2021/09/07 14:15:25;;;;;;;4.50;2.97;;;;;;;28.64;36.18;99767.78;2042300;76;20198;-77
2021/09/07 14:18:29;;;;;;;3.04;2.84;;;;;;;28.66;35.67;99759.63;2046865;79;20164;-76
2021/09/07 14:21:32;;;;;;;3.05;2.79;;;;;;;28.63;36.65;99766.06;2047239;79;20238;-77
2021/09/07 14:24:34;;;;;;;3.05;2.85;;;;;;;28.38;36.63;99763.47;2047660;78;20176;-77
2021/09/07 14:27:40;;;;;;;2.90;2.67;;;;;;;28.12;36.60;99755.47;2046732;79;20941;-77
2021/09/07 14:30:42;;;;;;;3.04;2.83;;;;;;;28.04;36.52;99752.50;2046058;76;22344;-77